createdAt,value
2022-08-19T00:00:46.420Z,21.40
2022-08-19T00:03:13.122Z,21.40
2022-08-19T00:05:39.846Z,21.50
2022-08-19T00:08:06.549Z,21.50
2022-08-19T00:10:33.422Z,21.50
2022-08-19T00:13:00.127Z,21.50
2022-08-19T00:15:26.942Z,21.50
2022-08-19T00:17:53.646Z,21.50
2022-08-19T00:20:21.339Z,21.50
2022-08-19T00:22:48.323Z,21.50
2022-08-19T00:25:15.756Z,21.50
2022-08-19T00:27:43.627Z,21.50
2022-08-19T00:30:11.182Z,21.60
2022-08-19T00:32:38.140Z,21.60
2022-08-19T00:35:05.400Z,21.60
2022-08-19T00:37:32.093Z,21.70
2022-08-19T00:39:58.866Z,21.60
2022-08-19T00:42:25.609Z,21.60
2022-08-19T00:44:52.374Z,21.60
2022-08-19T00:47:19.126Z,21.60
2022-08-19T00:49:52.840Z,21.60
2022-08-19T00:52:26.477Z,21.60
2022-08-19T00:54:53.191Z,21.60
2022-08-19T00:57:21.888Z,21.70
2022-08-19T01:00:01.128Z,21.60
2022-08-19T01:02:29.339Z,21.60
2022-08-19T01:04:56.069Z,21.70
2022-08-19T01:07:22.794Z,21.60
2022-08-19T01:09:50.745Z,21.70
2022-08-19T01:12:17.477Z,21.70
2022-08-19T01:14:44.186Z,21.70
2022-08-19T01:17:11.124Z,21.60
2022-08-19T01:19:44.124Z,21.60
2022-08-19T01:22:49.123Z,21.60
2022-08-19T01:25:17.526Z,21.60
2022-08-19T01:27:45.720Z,21.50
2022-08-19T01:30:18.362Z,21.40
2022-08-19T01:32:45.062Z,21.40
2022-08-19T01:35:12.298Z,21.40
2022-08-19T01:37:55.062Z,21.40
2022-08-19T01:40:23.299Z,21.40
2022-08-19T01:42:50.459Z,21.30
2022-08-19T01:45:18.162Z,21.30
2022-08-19T01:47:44.922Z,21.30
2022-08-19T01:50:24.885Z,21.40
2022-08-19T01:53:01.240Z,21.40
2022-08-19T01:55:29.265Z,21.40
2022-08-19T01:57:58.006Z,21.40
2022-08-19T02:00:25.407Z,21.40
2022-08-19T02:02:52.495Z,21.40
2022-08-19T02:05:19.398Z,21.40
2022-08-19T02:07:46.097Z,21.40
2022-08-19T02:10:18.715Z,21.40
2022-08-19T02:12:45.503Z,21.40
2022-08-19T02:15:14.729Z,21.40
2022-08-19T02:17:42.108Z,21.40
2022-08-19T02:20:09.494Z,21.40
2022-08-19T02:22:36.214Z,21.40
2022-08-19T02:25:03.042Z,21.40
2022-08-19T02:27:29.744Z,21.40
2022-08-19T02:29:56.431Z,21.40
2022-08-19T02:32:23.137Z,21.40
2022-08-19T02:34:49.838Z,21.40
2022-08-19T02:37:16.543Z,21.40
2022-08-19T02:39:43.394Z,21.40
2022-08-19T02:42:10.131Z,21.40
2022-08-19T02:44:36.829Z,21.40
2022-08-19T02:47:03.697Z,21.40
2022-08-19T02:49:34.704Z,21.40
2022-08-19T02:52:02.456Z,21.50
2022-08-19T02:54:30.017Z,21.50
2022-08-19T02:56:56.726Z,21.50
2022-08-19T02:59:23.429Z,21.50
2022-08-19T03:01:50.191Z,21.40
2022-08-19T03:04:17.155Z,21.40
2022-08-19T03:06:45.165Z,21.50
2022-08-19T03:09:12.370Z,21.50
2022-08-19T03:11:39.385Z,21.40
2022-08-19T03:14:06.827Z,21.50
2022-08-19T03:16:35.936Z,21.50
2022-08-19T03:19:02.739Z,21.50
2022-08-19T03:21:33.187Z,21.50
2022-08-19T03:24:02.314Z,21.50
2022-08-19T03:26:29.212Z,21.40
2022-08-19T03:28:57.823Z,21.40
2022-08-19T03:31:43.806Z,21.40
2022-08-19T03:34:14.778Z,21.40
2022-08-19T03:36:41.634Z,21.40
2022-08-19T03:39:08.390Z,21.40
2022-08-19T03:41:45.554Z,21.30
2022-08-19T03:44:25.096Z,21.30
2022-08-19T03:46:54.443Z,21.30
2022-08-19T03:49:21.815Z,21.30
2022-08-19T03:51:55.709Z,21.30
2022-08-19T03:54:23.317Z,21.30
2022-08-19T03:56:50.857Z,21.30
2022-08-19T03:59:20.428Z,21.30
2022-08-19T04:01:47.176Z,21.40
2022-08-19T04:04:13.872Z,21.40
2022-08-19T04:06:40.594Z,21.40
2022-08-19T04:09:11.074Z,21.30
2022-08-19T04:11:46.869Z,21.30
2022-08-19T04:14:15.572Z,21.30
2022-08-19T04:16:42.862Z,21.30
2022-08-19T04:19:09.566Z,21.20
2022-08-19T04:21:36.288Z,21.20
2022-08-19T04:24:03.856Z,21.20
2022-08-19T04:26:35.222Z,21.10
2022-08-19T04:29:03.246Z,21.10
2022-08-19T04:31:31.183Z,21.10
2022-08-19T04:33:59.073Z,21.10
2022-08-19T04:36:30.418Z,21.20
2022-08-19T04:38:58.518Z,21.20
2022-08-19T04:41:25.561Z,21.20
2022-08-19T04:43:52.685Z,21.20
2022-08-19T04:46:39.036Z,21.20
2022-08-19T04:49:13.172Z,21.20
2022-08-19T04:51:42.267Z,21.20
2022-08-19T04:54:08.982Z,21.20
2022-08-19T04:56:35.843Z,21.20
2022-08-19T04:59:02.537Z,21.20
2022-08-19T05:01:29.534Z,21.20
2022-08-19T05:03:57.321Z,21.30
2022-08-19T05:06:24.513Z,21.30
2022-08-19T05:08:51.353Z,21.30
2022-08-19T05:11:26.426Z,21.30
2022-08-19T05:13:53.457Z,21.30
2022-08-19T05:16:22.002Z,21.30
2022-08-19T05:18:48.759Z,21.30
2022-08-19T05:21:17.452Z,21.30
2022-08-19T05:23:44.493Z,21.30
2022-08-19T05:26:11.260Z,21.30
2022-08-19T05:28:37.963Z,21.40
2022-08-19T05:31:04.833Z,21.40
2022-08-19T05:33:31.565Z,21.40
2022-08-19T05:35:58.289Z,21.40
2022-08-19T05:38:25.037Z,21.50
2022-08-19T05:40:51.765Z,21.50
2022-08-19T05:43:18.457Z,21.50
2022-08-19T05:45:45.335Z,21.50
2022-08-19T05:48:12.316Z,21.50
2022-08-19T05:50:40.357Z,21.50
2022-08-19T05:53:07.069Z,21.50
2022-08-19T05:55:34.024Z,21.60
2022-08-19T05:58:00.745Z,21.50
2022-08-19T06:00:27.507Z,21.50
2022-08-19T06:02:54.383Z,21.50
2022-08-19T06:05:21.205Z,21.60
2022-08-19T06:07:47.916Z,21.70
2022-08-19T06:10:15.321Z,21.70
2022-08-19T06:12:42.066Z,21.80
2022-08-19T06:15:11.582Z,21.80
2022-08-19T06:17:38.606Z,21.80
2022-08-19T06:20:07.136Z,21.90
2022-08-19T06:22:39.058Z,21.90
2022-08-19T06:25:06.331Z,21.80
2022-08-19T06:27:33.134Z,21.80
2022-08-19T06:29:59.973Z,21.80
2022-08-19T06:32:26.729Z,21.80
2022-08-19T06:34:53.426Z,21.70
2022-08-19T06:37:20.231Z,21.80
2022-08-19T06:39:47.008Z,21.80
2022-08-19T06:42:13.912Z,21.80
2022-08-19T06:44:43.359Z,21.80
2022-08-19T06:47:14.929Z,21.80
2022-08-19T06:49:50.044Z,21.90
2022-08-19T06:52:16.849Z,21.80
2022-08-19T06:54:45.926Z,21.80
2022-08-19T06:57:24.413Z,21.90
2022-08-19T06:59:51.223Z,21.80
2022-08-19T07:04:52.721Z,21.80
2022-08-19T07:07:21.512Z,21.80
2022-08-19T07:09:57.143Z,21.80
2022-08-19T07:12:30.238Z,21.80
2022-08-19T07:14:57.259Z,21.80
2022-08-19T07:17:24.473Z,21.90
2022-08-19T07:19:51.652Z,21.80
2022-08-19T07:22:21.358Z,21.90
2022-08-19T07:24:51.498Z,21.90
2022-08-19T07:27:19.478Z,21.90
2022-08-19T07:29:56.123Z,21.90
2022-08-19T07:32:24.845Z,22.00
2022-08-19T07:34:52.251Z,22.00
2022-08-19T07:37:18.980Z,22.00
2022-08-19T07:39:45.760Z,22.00
2022-08-19T07:42:13.267Z,22.00
2022-08-19T07:47:49.490Z,21.90
2022-08-19T07:49:59.035Z,21.90
2022-08-19T07:52:25.748Z,21.90
2022-08-19T07:54:52.453Z,21.90
2022-08-19T07:57:19.229Z,22.00
2022-08-19T07:59:46.039Z,22.10
2022-08-19T08:02:12.782Z,22.30
2022-08-19T08:04:39.489Z,22.40
2022-08-19T08:07:06.841Z,22.40
2022-08-19T08:09:39.260Z,22.50
2022-08-19T08:12:33.057Z,22.50
2022-08-19T08:15:00.418Z,22.60
2022-08-19T08:17:31.063Z,22.60
2022-08-19T08:20:15.336Z,22.70
2022-08-19T08:22:46.469Z,22.70
2022-08-19T08:25:18.336Z,22.80
2022-08-19T08:27:48.047Z,22.80
2022-08-19T08:30:25.696Z,22.90
2022-08-19T08:33:00.527Z,23.00
2022-08-19T08:35:29.474Z,23.10
2022-08-19T08:37:56.938Z,23.10
2022-08-19T08:40:51.877Z,23.20
2022-08-19T08:43:33.186Z,23.20
2022-08-19T08:46:30.691Z,23.20
2022-08-19T08:49:52.858Z,23.30
2022-08-19T08:52:32.086Z,23.60
2022-08-19T08:55:00.923Z,23.80
2022-08-19T08:57:50.482Z,23.70
2022-08-19T09:00:34.092Z,23.70
2022-08-19T09:03:01.068Z,23.70
2022-08-19T09:05:53.107Z,23.60
2022-08-19T09:08:36.608Z,23.60
2022-08-19T09:11:06.786Z,23.50
2022-08-19T09:14:35.008Z,23.40
2022-08-19T09:17:00.914Z,23.40
2022-08-19T09:19:27.694Z,23.30
2022-08-19T09:21:56.400Z,23.20
2022-08-19T09:24:23.741Z,23.10
2022-08-19T09:26:57.856Z,23.20
2022-08-19T09:29:24.657Z,23.20
2022-08-19T09:31:51.740Z,23.40
2022-08-19T09:34:21.389Z,23.50
2022-08-19T09:36:49.403Z,23.70
2022-08-19T09:39:16.640Z,23.80
2022-08-19T09:41:47.615Z,23.90
2022-08-19T09:44:15.961Z,24.00
2022-08-19T09:46:42.700Z,24.10
2022-08-19T09:49:09.401Z,24.20
2022-08-19T09:51:36.101Z,24.40
2022-08-19T09:54:05.101Z,24.60
2022-08-19T09:56:32.139Z,24.80
2022-08-19T09:58:59.969Z,25.00
2022-08-19T10:01:27.934Z,25.10
2022-08-19T10:03:56.281Z,25.10
2022-08-19T10:06:46.445Z,25.10
2022-08-19T10:09:12.515Z,25.20
2022-08-19T10:11:46.878Z,25.30
2022-08-19T10:14:19.472Z,25.40
2022-08-19T10:16:46.309Z,25.40
2022-08-19T10:19:13.260Z,25.30
2022-08-19T10:21:40.629Z,25.20
2022-08-19T10:24:09.530Z,25.20
2022-08-19T10:26:37.992Z,25.30
2022-08-19T10:29:05.387Z,25.40
2022-08-19T10:32:01.417Z,25.30
2022-08-19T10:34:27.554Z,25.70
2022-08-19T10:36:56.643Z,26.30
2022-08-19T10:39:28.805Z,26.60
2022-08-19T10:41:57.674Z,26.60
2022-08-19T10:44:24.479Z,26.50
2022-08-19T10:46:51.279Z,26.50
2022-08-19T10:49:18.070Z,26.40
2022-08-19T10:51:47.950Z,26.30
2022-08-19T10:54:15.808Z,26.00
2022-08-19T10:56:42.670Z,25.70
2022-08-19T10:59:09.445Z,25.30
2022-08-19T11:01:36.534Z,25.10
2022-08-19T11:04:04.435Z,24.90
2022-08-19T11:06:33.007Z,24.60
2022-08-19T11:08:59.879Z,24.50
2022-08-19T11:11:26.880Z,24.30
2022-08-19T11:13:53.690Z,24.30
2022-08-19T11:16:25.537Z,24.20
2022-08-19T11:18:54.825Z,24.20
2022-08-19T11:21:24.271Z,24.20
2022-08-19T11:23:52.673Z,24.50
2022-08-19T11:26:21.020Z,24.90
2022-08-19T11:28:48.203Z,25.00
2022-08-19T11:31:20.075Z,25.00
2022-08-19T11:33:47.841Z,24.90
2022-08-19T11:36:15.344Z,24.80
2022-08-19T11:38:42.882Z,24.70
2022-08-19T11:41:09.681Z,24.60
2022-08-19T11:43:37.764Z,24.50
2022-08-19T11:46:09.277Z,24.60
2022-08-19T11:48:36.125Z,24.80
2022-08-19T11:51:08.671Z,25.10
2022-08-19T11:53:35.523Z,25.30
2022-08-19T11:56:02.559Z,25.50
2022-08-19T11:58:29.576Z,25.50
2022-08-19T12:00:56.474Z,25.40
2022-08-19T12:03:23.413Z,25.40
2022-08-19T12:05:50.131Z,25.30
2022-08-19T12:08:17.135Z,25.20
2022-08-19T12:10:43.988Z,25.00
2022-08-19T12:13:10.912Z,25.00
2022-08-19T12:15:38.595Z,24.90
2022-08-19T12:18:05.708Z,24.90
2022-08-19T12:20:33.495Z,25.00
2022-08-19T12:23:03.795Z,25.20
2022-08-19T12:25:30.546Z,25.30
2022-08-19T12:27:57.847Z,25.40
2022-08-19T12:30:25.331Z,25.40
2022-08-19T12:32:52.415Z,25.40
2022-08-19T12:35:19.543Z,25.60
2022-08-19T12:37:55.820Z,26.00
2022-08-19T12:40:24.277Z,26.30
2022-08-19T12:42:54.086Z,26.30
2022-08-19T12:45:21.368Z,26.30
2022-08-19T12:47:49.696Z,26.10
2022-08-19T12:50:16.672Z,26.00
2022-08-19T12:52:43.591Z,25.80
2022-08-19T12:55:10.580Z,25.70
2022-08-19T12:57:37.494Z,25.60
2022-08-19T13:00:09.651Z,25.40
2022-08-19T13:02:38.586Z,25.40
2022-08-19T13:05:07.607Z,25.40
2022-08-19T13:07:34.415Z,25.50
2022-08-19T13:10:01.736Z,25.60
2022-08-19T13:12:29.328Z,26.10
2022-08-19T13:14:56.514Z,26.90
2022-08-19T13:17:23.285Z,27.80
2022-08-19T13:19:50.034Z,28.60
2022-08-19T13:22:16.860Z,29.40
2022-08-19T13:24:47.055Z,30.20
2022-08-19T13:27:14.443Z,30.70
2022-08-19T13:29:43.099Z,31.20
2022-08-19T13:32:09.844Z,31.70
2022-08-19T13:34:39.933Z,32.10
2022-08-19T13:37:06.775Z,32.50
2022-08-19T13:39:33.884Z,32.70
2022-08-19T13:42:01.046Z,33.00
2022-08-19T13:44:28.898Z,33.20
2022-08-19T13:46:55.631Z,33.50
2022-08-19T13:49:22.405Z,33.40
2022-08-19T13:51:49.279Z,33.10
2022-08-19T13:54:16.197Z,32.80
2022-08-19T13:56:44.191Z,32.50
2022-08-19T13:59:11.283Z,32.10
2022-08-19T14:01:38.399Z,32.10
2022-08-19T14:04:05.450Z,32.40
2022-08-19T14:06:32.562Z,32.90
2022-08-19T14:08:59.600Z,33.40
2022-08-19T14:11:26.368Z,33.80
2022-08-19T14:13:53.152Z,34.20
2022-08-19T14:16:20.894Z,34.60
2022-08-19T14:18:47.692Z,34.90
2022-08-19T14:21:19.108Z,35.10
2022-08-19T14:23:45.875Z,35.20
2022-08-19T14:26:15.169Z,35.30
2022-08-19T14:28:42.609Z,35.40
2022-08-19T14:31:13.202Z,35.80
2022-08-19T14:33:40.084Z,36.10
2022-08-19T14:36:06.968Z,36.40
2022-08-19T14:38:33.944Z,36.90
2022-08-19T14:41:30.196Z,37.20
2022-08-19T14:43:57.507Z,37.60
2022-08-19T14:46:28.215Z,38.10
2022-08-19T14:48:56.538Z,38.70
2022-08-19T14:51:24.116Z,39.40
2022-08-19T14:53:51.187Z,39.90
2022-08-19T14:56:20.724Z,39.90
2022-08-19T14:58:47.528Z,40.00
2022-08-19T15:01:14.541Z,40.00
2022-08-19T15:03:41.821Z,40.30
2022-08-19T15:06:09.191Z,40.80
2022-08-19T15:08:40.240Z,41.10
2022-08-19T15:11:18.848Z,41.20
2022-08-19T15:13:45.633Z,41.30
2022-08-19T15:16:17.997Z,41.00
2022-08-19T15:18:45.467Z,40.80
2022-08-19T15:21:13.220Z,40.40
2022-08-19T15:23:40.291Z,39.80
2022-08-19T15:26:07.089Z,39.10
2022-08-19T15:28:33.849Z,38.40
2022-08-19T15:31:00.686Z,37.60
2022-08-19T15:33:27.455Z,36.90
2022-08-19T15:35:54.157Z,36.40
2022-08-19T15:38:21.076Z,35.90
2022-08-19T15:40:49.982Z,35.60
2022-08-19T15:43:17.435Z,35.40
2022-08-19T15:45:49.545Z,35.20
2022-08-19T15:48:16.480Z,35.00
2022-08-19T15:50:43.241Z,34.80
2022-08-19T15:53:10.624Z,34.50
2022-08-19T15:55:42.666Z,34.20
2022-08-19T15:58:28.057Z,33.80
2022-08-19T16:01:01.414Z,33.30
2022-08-19T16:03:28.888Z,32.80
2022-08-19T16:05:55.780Z,32.50
2022-08-19T16:08:22.554Z,32.50
2022-08-19T16:10:49.503Z,32.50
2022-08-19T16:13:16.228Z,32.60
2022-08-19T16:15:43.177Z,32.70
2022-08-19T16:18:09.939Z,32.90
2022-08-19T16:20:36.642Z,33.40
2022-08-19T16:23:03.665Z,33.80
2022-08-19T16:25:30.440Z,34.20
2022-08-19T16:28:07.135Z,34.50
2022-08-19T16:30:35.407Z,34.70
2022-08-19T16:33:02.404Z,34.80
2022-08-19T16:35:29.169Z,34.60
2022-08-19T16:37:56.125Z,34.50
2022-08-19T16:40:23.454Z,34.60
2022-08-19T16:42:50.580Z,34.60
2022-08-19T16:45:17.347Z,34.70
2022-08-19T16:47:44.125Z,34.50
2022-08-19T16:50:10.904Z,33.90
2022-08-19T16:52:37.697Z,33.00
2022-08-19T16:55:05.429Z,32.10
2022-08-19T16:57:32.557Z,31.20
2022-08-19T16:59:59.274Z,30.40
2022-08-19T17:02:30.403Z,29.80
2022-08-19T17:04:58.915Z,29.20
2022-08-19T17:07:29.486Z,28.60
2022-08-19T17:10:00.779Z,28.30
2022-08-19T17:12:32.208Z,28.10
2022-08-19T17:15:00.239Z,27.90
2022-08-19T17:17:29.169Z,27.70
2022-08-19T17:19:56.996Z,27.60
2022-08-19T17:22:23.749Z,27.40
2022-08-19T17:24:50.475Z,27.10
2022-08-19T17:27:17.418Z,26.90
2022-08-19T17:29:47.001Z,26.70
2022-08-19T17:32:14.301Z,26.60
2022-08-19T17:34:41.115Z,26.40
2022-08-19T17:37:07.896Z,26.30
2022-08-19T17:39:39.671Z,26.30
2022-08-19T17:42:06.904Z,26.10
2022-08-19T17:44:35.738Z,25.90
2022-08-19T17:47:02.765Z,25.80
2022-08-19T17:49:29.738Z,25.70
2022-08-19T17:51:59.575Z,25.60
2022-08-19T17:54:33.260Z,25.60
2022-08-19T17:57:01.520Z,25.60
2022-08-19T17:59:30.310Z,25.50
2022-08-19T18:01:57.345Z,25.50
2022-08-19T18:04:24.861Z,25.40
2022-08-19T18:06:52.962Z,25.30
2022-08-19T18:09:24.874Z,25.30
2022-08-19T18:11:53.514Z,25.30
2022-08-19T18:14:22.160Z,25.30
2022-08-19T18:16:48.866Z,25.20
2022-08-19T18:19:16.452Z,25.10
2022-08-19T18:21:43.213Z,25.00
2022-08-19T18:24:09.948Z,24.90
2022-08-19T18:26:36.817Z,24.90
2022-08-19T18:29:03.656Z,24.90
2022-08-19T18:31:30.368Z,24.80
2022-08-19T18:33:57.515Z,24.80
2022-08-19T18:36:52.128Z,24.70
2022-08-19T18:39:11.028Z,24.70
2022-08-19T18:41:39.071Z,24.50
2022-08-19T18:44:05.813Z,24.50
2022-08-19T18:46:33.030Z,24.50
2022-08-19T18:49:03.629Z,24.40
2022-08-19T18:51:30.361Z,24.40
2022-08-19T18:53:57.077Z,24.30
2022-08-19T18:56:23.795Z,24.20
2022-08-19T18:58:50.493Z,24.20
2022-08-19T19:01:19.377Z,24.10
2022-08-19T19:03:50.758Z,24.10
2022-08-19T19:06:23.673Z,24.00
2022-08-19T19:08:51.466Z,23.90
2022-08-19T19:11:21.464Z,23.90
2022-08-19T19:13:48.182Z,23.90
2022-08-19T19:16:15.058Z,23.90
2022-08-19T19:18:41.839Z,23.90
2022-08-19T19:21:09.601Z,23.90
2022-08-19T19:23:37.373Z,23.80
2022-08-19T19:26:04.193Z,23.80
2022-08-19T19:28:30.922Z,23.80
2022-08-19T19:30:57.718Z,23.70
2022-08-19T19:33:25.609Z,23.70
2022-08-19T19:35:52.400Z,23.60
2022-08-19T19:38:19.206Z,23.60
2022-08-19T19:40:45.961Z,23.50
2022-08-19T19:43:12.651Z,23.50
2022-08-19T19:45:39.404Z,23.40
2022-08-19T19:48:06.132Z,23.40
2022-08-19T19:50:32.850Z,23.40
2022-08-19T19:52:59.587Z,23.40
2022-08-19T19:55:26.344Z,23.30
2022-08-19T19:57:53.312Z,23.20
2022-08-19T20:00:20.974Z,23.20
2022-08-19T20:02:50.317Z,23.20
2022-08-19T20:05:17.773Z,23.10
2022-08-19T20:07:44.476Z,23.10
2022-08-19T20:10:11.268Z,23.10
2022-08-19T20:12:38.061Z,23.00
2022-08-19T20:15:05.671Z,23.00
2022-08-19T20:17:32.534Z,23.00
2022-08-19T20:19:59.279Z,23.00
2022-08-19T20:22:26.035Z,22.90
2022-08-19T20:24:52.773Z,22.90
2022-08-19T20:27:19.638Z,22.80
2022-08-19T20:29:49.504Z,22.80
2022-08-19T20:32:18.661Z,22.70
2022-08-19T20:34:45.515Z,22.70
2022-08-19T20:37:12.269Z,22.60
2022-08-19T20:39:39.183Z,22.60
2022-08-19T20:42:06.096Z,22.60
2022-08-19T20:44:32.884Z,22.50
2022-08-19T20:47:03.405Z,22.50
2022-08-19T20:49:30.670Z,22.40
2022-08-19T20:51:58.036Z,22.40
2022-08-19T20:54:24.867Z,22.40
2022-08-19T20:56:51.900Z,22.40
2022-08-19T20:59:19.024Z,22.30
2022-08-19T21:01:46.147Z,22.30
2022-08-19T21:04:12.963Z,22.20
2022-08-19T21:06:39.816Z,22.20
2022-08-19T21:09:08.900Z,22.20
2022-08-19T21:11:35.880Z,22.20
2022-08-19T21:14:02.629Z,22.10
2022-08-19T21:16:29.342Z,22.10
2022-08-19T21:18:56.029Z,22.00
2022-08-19T21:21:22.738Z,22.00
2022-08-19T21:23:49.793Z,21.90
2022-08-19T21:26:16.679Z,22.00
2022-08-19T21:28:43.578Z,21.90
2022-08-19T21:31:10.448Z,21.90
2022-08-19T21:33:37.484Z,21.90
2022-08-19T21:36:04.791Z,21.80
2022-08-19T21:38:41.374Z,21.80
2022-08-19T21:41:08.132Z,21.80
2022-08-19T21:43:36.686Z,21.70
2022-08-19T21:46:03.775Z,21.70
2022-08-19T21:48:30.591Z,21.70
2022-08-19T21:50:57.408Z,21.70
2022-08-19T21:53:24.152Z,21.70
2022-08-19T21:55:53.539Z,21.60
2022-08-19T21:58:28.775Z,21.60
2022-08-19T22:00:58.646Z,21.60
2022-08-19T22:03:25.832Z,21.50
2022-08-19T22:05:52.798Z,21.50
2022-08-19T22:08:19.532Z,21.50
2022-08-19T22:10:46.579Z,21.40
2022-08-19T22:13:13.439Z,21.40
2022-08-19T22:15:40.226Z,21.40
2022-08-19T22:18:06.940Z,21.30
2022-08-19T22:20:33.674Z,21.30
2022-08-19T22:23:02.443Z,21.20
2022-08-19T22:25:32.091Z,21.20
2022-08-19T22:28:03.100Z,21.10
2022-08-19T22:30:30.951Z,21.10
2022-08-19T22:33:01.533Z,21.10
2022-08-19T22:35:30.068Z,21.10
2022-08-19T22:37:57.464Z,21.10
2022-08-19T22:40:24.424Z,21.00
2022-08-19T22:42:58.246Z,21.00
2022-08-19T22:45:25.049Z,21.00
2022-08-19T22:47:51.854Z,20.90
2022-08-19T22:50:18.659Z,20.90
2022-08-19T22:52:51.775Z,20.90
2022-08-19T22:55:19.033Z,20.90
2022-08-19T22:57:45.788Z,20.80
2022-08-19T23:00:13.233Z,20.80
2022-08-19T23:02:51.670Z,20.80
2022-08-19T23:05:18.767Z,20.80
2022-08-19T23:07:52.635Z,20.70
2022-08-19T23:10:26.958Z,20.70
2022-08-19T23:12:55.362Z,20.60
2022-08-19T23:15:22.938Z,20.60
2022-08-19T23:17:53.297Z,20.60
2022-08-19T23:20:20.562Z,20.60
2022-08-19T23:22:47.480Z,20.60
2022-08-19T23:25:16.741Z,20.50
2022-08-19T23:27:44.050Z,20.50
2022-08-19T23:30:11.451Z,20.50
2022-08-19T23:32:38.178Z,20.40
2022-08-19T23:35:05.274Z,20.40
2022-08-19T23:37:32.068Z,20.40
2022-08-19T23:39:58.863Z,20.30
2022-08-19T23:42:25.607Z,20.30
2022-08-19T23:44:53.035Z,20.30
2022-08-19T23:47:20.652Z,20.20
2022-08-19T23:49:47.366Z,20.20
2022-08-19T23:52:14.301Z,20.20
2022-08-19T23:54:43.603Z,20.20
2022-08-19T23:57:13.334Z,20.10
2022-08-19T23:59:41.522Z,20.10
